Weather at Ljubljana Jože Pučnik Airport

Public forecast

Using degrees Celsius for public forecast. Weather courtesy of forecast.io.

Current aviation weather report (METAR) for Ljubljana Jože Pučnik Airport

2024/04/24 16:00 (retrieved 20 minutes ago)

LJLJ 241600Z VRB02KT 9999 FEW013 SCT035 BKN060 08/04 Q1006 NOSIG

Aviation forecast (TAF) for Ljubljana Jože Pučnik Airport

2024/04/24 12:05 (retrieved 4 hours ago)

TAF LJLJ 241100Z 2412/2512 12004KT 9999 FEW003 BKN012 BKN060 PROB40 TEMPO 2412/2509 -RA